M I D A S
Marine Information and Data Acquisition System
Tripno 749 of the Zeeleeuw from 2004-07-15 07:01:23 to 2004-07-15 15:27:17
Back to CruiseResearch ActivitiesStationsMapUnderway DataData graphs

EquipmentUnitsComment
TimeDGPSUTC
LatitudeDGPSDM.mWGS84
LongitudeDGPSDM.mWGS84
HeadingGyrodeg 
SOGDGPSknotsSpeed over ground
COGDGPSdegCourse over ground
DepthEcho soundermeters200 kHz
Missing or incorrect values are displayed as -999
Navigation data collected by the RV Zeeleeuw from 2004-07-15 07:01:23 to 2004-07-15 15:27:17
                                                                                    Next 1000 lines
Time Latitude Longitude Heading SOG COG Depth
2004-07-15 07:01:28 51°13.597 2°56.097 126.6   73 7.6
2004-07-15 07:01:35 51°13.597 2°56.097 126.6   155 7.7
2004-07-15 07:01:40 51°13.597 2°56.097 126.2   139 7.7
2004-07-15 07:01:45 51°13.597 2°56.097 125.5   143 7.7
2004-07-15 07:01:49 51°13.597 2°56.097 124.5 0.1 185 7.7
2004-07-15 07:01:55 51°13.597 2°56.097 123.6 0.1 177 7.7
2004-07-15 07:02:00 51°13.596 2°56.097 122.6 0.1 189 7.7
2004-07-15 07:02:05 51°13.596 2°56.097 121.5 0.1 185 7.7
2004-07-15 07:02:09 51°13.596 2°56.097 120 0.1 191 7.6
2004-07-15 07:02:15 51°13.596 2°56.097 118.4 0.1 186 7.7
2004-07-15 07:02:20 51°13.596 2°56.097 116.5 0.1 185 7.7
2004-07-15 07:02:25 51°13.596 2°56.097 114.6 0.1 193 7.7
2004-07-15 07:02:28 51°13.596 2°56.097 112.3 0.1 208 7.7
2004-07-15 07:02:35 51°13.596 2°56.096 111 0.5 277 7.7
2004-07-15 07:02:40 51°13.596 2°56.094 110.3 0.8 278 7.8
2004-07-15 07:02:45 51°13.596 2°56.091 110 1.2 284 7.7
2004-07-15 07:02:49 51°13.596 2°56.088 110.3 1.7 285 5.4
2004-07-15 07:02:55 51°13.597 2°56.083 111 1.9 287 -999
2004-07-15 07:03:01 51°13.599 2°56.077 112.4 2.3 288 -999
2004-07-15 07:03:05 51°13.6 2°56.073 113.8 2.6 291 -999
2004-07-15 07:03:11 51°13.602 2°56.066 114.7 2.8 292 -999
2004-07-15 07:03:16 51°13.603 2°56.061 115.4 2.6 291 -999
2004-07-15 07:03:21 51°13.604 2°56.057 115.7 2.2 293 -999
2004-07-15 07:03:25 51°13.605 2°56.055 116.1 1.3 290 -999
2004-07-15 07:03:31 51°13.605 2°56.053 116.9 0.8 293 -999
2004-07-15 07:03:36 51°13.605 2°56.053 118.5 0.1 226 -999
2004-07-15 07:03:41 51°13.604 2°56.054 120.9 0.4 124 -999
2004-07-15 07:03:45 51°13.604 2°56.055 124.1 0.8 127 -999
2004-07-15 07:03:51 51°13.603 2°56.058 127.6 1.1 124 9.9
2004-07-15 07:03:55 51°13.602 2°56.06 130.1 1.4 127 9.4
2004-07-15 07:04:00 51°13.6 2°56.063 132.8 1.9 128 -999
2004-07-15 07:04:05 51°13.598 2°56.067 134.2 2.1 129 4.9
2004-07-15 07:04:11 51°13.596 2°56.072 135.9 2.4 130 -999
2004-07-15 07:04:15 51°13.594 2°56.075 136.7 2.6 130 10.2
2004-07-15 07:04:20 51°13.591 2°56.08 137 2.7 130 10.2
2004-07-15 07:04:25 51°13.589 2°56.085 137 2.8 131 10.1
2004-07-15 07:04:30 51°13.586 2°56.09 137 3 131 9.8
2004-07-15 07:04:35 51°13.583 2°56.095 137 3.2 132 9.7
2004-07-15 07:04:40 51°13.58 2°56.1 137.3 3.2 133 10
2004-07-15 07:04:45 51°13.577 2°56.106 137.7 3.3 133 10.1
2004-07-15 07:04:49 51°13.575 2°56.11 138 3.3 134 10
2004-07-15 07:04:55 51°13.571 2°56.117 138 3.4 133 10.1
2004-07-15 07:05:00 51°13.567 2°56.122 138 3.5 134 10.4
2004-07-15 07:05:05 51°13.564 2°56.128 138 3.5 134 10
2004-07-15 07:05:10 51°13.561 2°56.133 138.3 3.5 134 9.2
2004-07-15 07:05:15 51°13.557 2°56.139 138.3 3.5 133 9.8
2004-07-15 07:05:19 51°13.555 2°56.144 137.9 3.4 134 10.2
2004-07-15 07:05:25 51°13.551 2°56.15 137.4 3.4 133 10.3
2004-07-15 07:05:29 51°13.548 2°56.155 136.7 3.3 132 10.5
2004-07-15 07:05:35 51°13.545 2°56.162 135.7 3.4 128 10.5
2004-07-15 07:05:40 51°13.542 2°56.168 133 3.5 126 10.4
2004-07-15 07:05:45 51°13.54 2°56.175 129.6 3.5 120 10.4
2004-07-15 07:05:49 51°13.538 2°56.181 122.7 3.5 117 10.4
2004-07-15 07:05:55 51°13.536 2°56.19 116.6 3.7 109 10.4
2004-07-15 07:06:00 51°13.535 2°56.199 109.4 3.9 99 10.5
2004-07-15 07:06:05 51°13.535 2°56.208 100.9 3.9 91 10.6
2004-07-15 07:06:11 51°13.536 2°56.218 94.3 3.9 90 10.4
2004-07-15 07:06:15 51°13.537 2°56.225 87.7 3.7 79 10.1
2004-07-15 07:06:19 51°13.538 2°56.231 82 3.6 78 8.8
2004-07-15 07:06:25 51°13.539 2°56.239 79 3.2 74 8.7
2004-07-15 07:06:30 51°13.54 2°56.244 76.9 2.7 76 8.8
2004-07-15 07:06:35 51°13.541 2°56.247 73.3 1.8 71 9
2004-07-15 07:06:39 51°13.542 2°56.249 68.8 1.1 76 9
2004-07-15 07:06:45 51°13.542 2°56.25 64.8 0.7 79 8.9
2004-07-15 07:06:49 51°13.542 2°56.251 62.6 0.3 136 8.8
2004-07-15 07:06:52 51°13.541 2°56.251 61.7 0.5 215 8.9
2004-07-15 07:06:59 51°13.541 2°56.249 61.2 0.8 223 8.9
2004-07-15 07:07:05 51°13.54 2°56.247 61 1 228 9
2004-07-15 07:07:11 51°13.538 2°56.244 61 1.4 231 -999
2004-07-15 07:07:16 51°13.537 2°56.242 61.1 1.4 235 -999
2004-07-15 07:07:21 51°13.536 2°56.24 61.6 1.3 233 -999
2004-07-15 07:07:25 51°13.535 2°56.239 61.7 1 235 -999
2004-07-15 07:07:31 51°13.535 2°56.238 61.1 0.4 219 -999
2004-07-15 07:07:36 51°13.535 2°56.238 59.5 0.1 78 -999
2004-07-15 07:07:41 51°13.535 2°56.239 55.8 0.5 57 -999
2004-07-15 07:07:45 51°13.536 2°56.241 51.7 0.9 50 -999
2004-07-15 07:07:51 51°13.537 2°56.243 47.1 1.1 50 -999
2004-07-15 07:07:56 51°13.538 2°56.245 42 1.6 38 -999
2004-07-15 07:08:01 51°13.54 2°56.248 36.6 1.7 37 -999
2004-07-15 07:08:05 51°13.542 2°56.249 32.4 1.6 28 -999
2004-07-15 07:08:11 51°13.544 2°56.251 28.3 1.2 34 -999
2004-07-15 07:08:16 51°13.544 2°56.252 25.7 0.5 43 -999
2004-07-15 07:08:20 51°13.544 2°56.252 23.5 0.2 105 9.1
2004-07-15 07:08:25 51°13.543 2°56.252 21.6 0.7 175 -999
2004-07-15 07:08:29 51°13.542 2°56.252 20.1 1 183 5
2004-07-15 07:08:35 51°13.54 2°56.252 19.2 1.5 187 -999
2004-07-15 07:08:40 51°13.537 2°56.251 18.4 1.8 187 4.9
2004-07-15 07:08:45 51°13.534 2°56.251 17.8 2.1 187 -999
2004-07-15 07:08:51 51°13.531 2°56.25 17.4 2 189 -999
2004-07-15 07:08:56 51°13.529 2°56.25 17.8 1.6 189 -999
2004-07-15 07:09:01 51°13.527 2°56.25 18.1 1.1 183 -999
2004-07-15 07:09:05 51°13.527 2°56.25 16.6 0.4 161 -999
2004-07-15 07:09:11 51°13.528 2°56.25 13.7 0.2 32 -999
2004-07-15 07:09:16 51°13.529 2°56.251 7.9 0.9 9 -999
2004-07-15 07:09:21 51°13.531 2°56.251 2.8 1.2 7 -999
2004-07-15 07:09:25 51°13.533 2°56.251 357.6 1.5 2 -999
2004-07-15 07:09:31 51°13.536 2°56.251 352.7 1.6 358 -999
2004-07-15 07:09:36 51°13.537 2°56.251 350.1 1.3   -999
2004-07-15 07:09:41 51°13.539 2°56.252 348.3 0.9 14 -999
2004-07-15 07:09:45 51°13.539 2°56.252 347 0.5 31 5.6
2004-07-15 07:09:51 51°13.539 2°56.253 345.8 0.5 105 9
2004-07-15 07:09:55 51°13.538 2°56.254 345.4 0.8 131 8.9
2004-07-15 07:09:59 51°13.537 2°56.256 345.4 1.3 144 8.9
2004-07-15 07:10:05 51°13.534 2°56.258 345.8 1.6 150 8.9
2004-07-15 07:10:11 51°13.531 2°56.26 346.5 1.8 152 -999
2004-07-15 07:10:16 51°13.529 2°56.262 347.6 1.9 155 5.1
2004-07-15 07:10:21 51°13.527 2°56.263 349.1 1.8 156 -999
2004-07-15 07:10:25 51°13.525 2°56.265 350.2 1.7 157 -999
2004-07-15 07:10:31 51°13.523 2°56.266 351 1.6 159 -999
2004-07-15 07:10:36 51°13.521 2°56.267 351.7 1.2 157 8.8
2004-07-15 07:10:40 51°13.521 2°56.268 351.8 0.6 154 8.7
2004-07-15 07:10:45 51°13.521 2°56.268 350.5 0.2 41 4.8
2004-07-15 07:10:51 51°13.523 2°56.267 346.3 0.8 342 8.8
2004-07-15 07:10:55 51°13.525 2°56.265 341.2 2 332 -999
2004-07-15 07:11:00 51°13.527 2°56.262 331.9 2.5 323 4.8
2004-07-15 07:11:05 51°13.53 2°56.257 323.9 2.9 319 -999
2004-07-15 07:11:09 51°13.533 2°56.253 315.9 3.2 310 5
2004-07-15 07:11:16 51°13.536 2°56.244 308.3 3.1 301 8.8
2004-07-15 07:11:20 51°13.538 2°56.24 303.8 3 300 8.7
2004-07-15 07:11:25 51°13.54 2°56.234 301.5 2.9 296 8.6
2004-07-15 07:11:29 51°13.541 2°56.229 299.2 2.9 295 8.7
2004-07-15 07:11:35 51°13.543 2°56.223 297.3 2.8 292 8.6
2004-07-15 07:11:39 51°13.544 2°56.218 295.6 2.8 291 8.6
2004-07-15 07:11:45 51°13.545 2°56.21 294.5 2.8 289 8.8
2004-07-15 07:11:49 51°13.546 2°56.205 293.1 2.8 289 9.2
2004-07-15 07:11:55 51°13.548 2°56.199 292.5 2.8 288 9.1
2004-07-15 07:12:00 51°13.549 2°56.193 292 2.8 287 9.6
2004-07-15 07:12:05 51°13.551 2°56.187 291.8 2.9 286 8.9
2004-07-15 07:12:10 51°13.552 2°56.181 291.9 2.9 286 9
2004-07-15 07:12:15 51°13.553 2°56.175 292.4 2.8 287 9.3
2004-07-15 07:12:20 51°13.554 2°56.169 293 2.9 286 9.3
2004-07-15 07:12:23 51°13.555 2°56.165 293.9 2.9 287 10.4
2004-07-15 07:12:31 51°13.557 2°56.156 294.8 2.9 288 10.3
2004-07-15 07:12:35 51°13.558 2°56.151 295.8 2.8 291 10.2
2004-07-15 07:12:40 51°13.56 2°56.146 297.2 2.8 292 9.9
2004-07-15 07:12:45 51°13.562 2°56.14 298.5 2.8 292 9.5
2004-07-15 07:12:49 51°13.563 2°56.136 299.4 2.8 293 9
2004-07-15 07:12:55 51°13.565 2°56.129 300 2.7 295 9.3
2004-07-15 07:12:59 51°13.566 2°56.125 300.3 2.7 295 10.5
2004-07-15 07:13:03 51°13.568 2°56.121 300.4 2.7 296 10.4
2004-07-15 07:13:11 51°13.57 2°56.111 300.4 2.7 295 10.1
2004-07-15 07:13:15 51°13.572 2°56.107 300.5 2.7 295 10.1
2004-07-15 07:13:20 51°13.574 2°56.102 300.8 2.7 296 10.2
2004-07-15 07:13:25 51°13.575 2°56.097 301.1 2.7 297 10.2
2004-07-15 07:13:30 51°13.577 2°56.092 301.3 2.7 298 10
2004-07-15 07:13:35 51°13.579 2°56.086 301.4 2.7 298 9.9
2004-07-15 07:13:40 51°13.581 2°56.081 301.8 2.7 299 10.1
2004-07-15 07:13:45 51°13.582 2°56.076 302 2.7 300 10.1
2004-07-15 07:13:49 51°13.584 2°56.072 302.5 2.7 299 10.3
2004-07-15 07:13:55 51°13.586 2°56.066 302.7 2.7 300 10.5
2004-07-15 07:14:00 51°13.588 2°56.061 303.1 2.7 300 10.5
2004-07-15 07:14:05 51°13.59 2°56.055 303.4 2.7 301 10.5
2004-07-15 07:14:08 51°13.591 2°56.052 304 2.7 301 10.4
2004-07-15 07:14:15 51°13.594 2°56.045 304.4 2.7 302 10.3
2004-07-15 07:14:21 51°13.596 2°56.039 304.8 2.7 302 10.3
2004-07-15 07:14:24 51°13.597 2°56.036 304.9 2.7 303 10.3
2004-07-15 07:14:31 51°13.6 2°56.03 305.3 2.7 303 10.5
2004-07-15 07:14:35 51°13.602 2°56.026 305.8 2.6 305 10.4
2004-07-15 07:14:40 51°13.604 2°56.021 306.3 2.7 304 10.6
2004-07-15 07:14:45 51°13.606 2°56.017 306.7 2.7 304 10.6
2004-07-15 07:14:50 51°13.608 2°56.012 307 2.7 304 10.7
2004-07-15 07:14:55 51°13.611 2°56.007 307.2 2.7 304 10.6
2004-07-15 07:15:00 51°13.613 2°56.003 307.3 2.7 304 10.5
2004-07-15 07:15:05 51°13.615 2°55.998 307.4 2.7 304 10.5
2004-07-15 07:15:09 51°13.616 2°55.994 307.7 2.7 305 10.4
2004-07-15 07:15:15 51°13.619 2°55.987 307.9 2.7 305 10.4
2004-07-15 07:15:20 51°13.621 2°55.982 308.4 2.7 306 10.8
2004-07-15 07:15:25 51°13.623 2°55.977 308.7 2.7 306 10.8
2004-07-15 07:15:29 51°13.625 2°55.973 308.9 2.7 306 10.9
2004-07-15 07:15:35 51°13.627 2°55.968 309 2.7 306 10.5
2004-07-15 07:15:40 51°13.629 2°55.964 309.1 2.7 306 10.6
2004-07-15 07:15:45 51°13.632 2°55.959 309.1 2.7 307 10.5
2004-07-15 07:15:50 51°13.634 2°55.955 309.1 2.7 306 10.5
2004-07-15 07:15:55 51°13.636 2°55.95 309.1 2.8 306 10.4
2004-07-15 07:16:00 51°13.639 2°55.945 309 2.9 306 10.5
2004-07-15 07:16:04 51°13.641 2°55.941 308.6 2.9 306 10.3
2004-07-15 07:16:09 51°13.643 2°55.936 308.4 3.1 305 10.4
2004-07-15 07:16:15 51°13.646 2°55.929 308.1 3.2 304 10.3
2004-07-15 07:16:20 51°13.649 2°55.923 307.8 3.3 304 9.7
2004-07-15 07:16:25 51°13.652 2°55.917 307.6 3.4 304 10.3
2004-07-15 07:16:29 51°13.654 2°55.911 307.2 3.6 303 10.5
2004-07-15 07:16:35 51°13.657 2°55.902 307 3.8 303 10.3
2004-07-15 07:16:40 51°13.66 2°55.895 307 4 303 10.3
2004-07-15 07:16:44 51°13.662 2°55.888 307 4.1 303 10.2
2004-07-15 07:16:49 51°13.665 2°55.88 306.6 4.4 302 10.1
2004-07-15 07:16:55 51°13.669 2°55.869 306.5 4.5 302 10.2
2004-07-15 07:17:00 51°13.673 2°55.861 306.3 4.8 302 10.1
2004-07-15 07:17:05 51°13.677 2°55.853 306.7 4.9 303 10.1
2004-07-15 07:17:10 51°13.681 2°55.843 308.4 5.1 303 10.3
2004-07-15 07:17:15 51°13.686 2°55.833 309.4 5.4 305 10.5
2004-07-15 07:17:19 51°13.689 2°55.825 310.5 5.8 306 10.7
2004-07-15 07:17:25 51°13.695 2°55.812 311.3 6 306 10.8
2004-07-15 07:17:30 51°13.7 2°55.801 312.2 6.1 307 11.5
2004-07-15 07:17:35 51°13.706 2°55.79 312.8 6.5 307 12.4
2004-07-15 07:17:39 51°13.71 2°55.781 313.2 6.6 308 12.6
2004-07-15 07:17:45 51°13.717 2°55.767 314 6.7 309 12.4
2004-07-15 07:17:51 51°13.725 2°55.753 315.6 6.8 310 11.4
2004-07-15 07:17:55 51°13.73 2°55.744 316.7 7 312 10.3
2004-07-15 07:17:59 51°13.735 2°55.735 317.6 7.1 313 9.5
2004-07-15 07:18:05 51°13.744 2°55.722 318.2 7.2 315 9.2
2004-07-15 07:18:09 51°13.75 2°55.713 319.9 7.2 316 8.8
2004-07-15 07:18:15 51°13.759 2°55.7 321.4 6 318 -999
2004-07-15 07:18:20 51°13.767 2°55.689 322.7 6.5 319 9.3
2004-07-15 07:18:25 51°13.775 2°55.679 324.2 7.5 321 -999
2004-07-15 07:18:31 51°13.784 2°55.667 326.6 7.5 322 -999
2004-07-15 07:18:35 51°13.791 2°55.659 328 7.5 325 -999
2004-07-15 07:18:40 51°13.8 2°55.649 330 7.6 326 10.1
2004-07-15 07:18:45 51°13.809 2°55.641 332.4 7.6 328 10
2004-07-15 07:18:49 51°13.816 2°55.634 335 7.7 330 9.8
2004-07-15 07:18:55 51°13.827 2°55.624 337.4 7.8 333 9.8
2004-07-15 07:19:00 51°13.837 2°55.616 339.2 7.8 334 10
2004-07-15 07:19:05 51°13.847 2°55.609 340.3 7.9 335 9.5
2004-07-15 07:19:09 51°13.856 2°55.604 341.3 8.1 336 9.3
2004-07-15 07:19:15 51°13.868 2°55.595 341.8 8.2 336 10.2
2004-07-15 07:19:20 51°13.879 2°55.588 341.8 8.3 337 9.5
2004-07-15 07:19:25 51°13.89 2°55.58 341.8 8.4 337 9.4
2004-07-15 07:19:29 51°13.898 2°55.574 341.8 8.5 337 9.6
2004-07-15 07:19:35 51°13.911 2°55.566 342.1 8.6 337 9.5
2004-07-15 07:19:39 51°13.92 2°55.56 342.2 8.6 337 9.6
2004-07-15 07:19:45 51°13.933 2°55.551 342.2 8.7 337 10
2004-07-15 07:19:50 51°13.944 2°55.543 342.5 8.7 337 10.2
2004-07-15 07:19:55 51°13.956 2°55.536 342.5 8.8 338 10.5
2004-07-15 07:19:59 51°13.965 2°55.529 342.5 8.8 337 11.2
2004-07-15 07:20:05 51°13.978 2°55.521 342.5 8.8 338 11.7
2004-07-15 07:20:07 51°13.983 2°55.518 342.8 8.8 338 12.1
2004-07-15 07:20:15 51°14.001 2°55.506 342.9 8.9 337 11.6
2004-07-15 07:20:20 51°14.012 2°55.498 342.1 8.9 337 10.9
2004-07-15 07:20:25 51°14.023 2°55.49 341.6 8.8 336 11
2004-07-15 07:20:30 51°14.035 2°55.482 341.5 8.8 336 10.6
2004-07-15 07:20:35 51°14.046 2°55.475 342.7 8.8 338 10.5
2004-07-15 07:20:40 51°14.058 2°55.468 343.2 8.9 338 10.7
2004-07-15 07:20:44 51°14.067 2°55.462 342.9 9.1 337 10.8
2004-07-15 07:20:49 51°14.079 2°55.454 342.5 9.6 337 10.9
2004-07-15 07:20:55 51°14.094 2°55.443 342.1 9.8 336 10.8
2004-07-15 07:20:59 51°14.104 2°55.436 341.8 10.1 336 11.1
2004-07-15 07:21:03 51°14.114 2°55.428 341.4 10.2 335 11.3
2004-07-15 07:21:09 51°14.13 2°55.416 339.7 10.5 333 11.7
2004-07-15 07:21:15 51°14.145 2°55.402 338.1 10.7 333 11.7
2004-07-15 07:21:20 51°14.159 2°55.391 338 10.7 332 11.9
2004-07-15 07:21:25 51°14.172 2°55.379 336.7 10.8 330 11.8
2004-07-15 07:21:29 51°14.182 2°55.369 333.6 10.8 327 11.7
2004-07-15 07:21:35 51°14.196 2°55.352 332.4 10.8 325 11.4
2004-07-15 07:21:39 51°14.206 2°55.341 330.2 10.8 322 11.4
2004-07-15 07:21:45 51°14.22 2°55.321 326.6 10.9 319 11.3
2004-07-15 07:21:51 51°14.233 2°55.302 324.6 10.9 318 11.5
2004-07-15 07:21:55 51°14.241 2°55.288 323 10.9 314 10.9
2004-07-15 07:21:59 51°14.25 2°55.274 319.8 11 312 11
2004-07-15 07:22:05 51°14.262 2°55.253 318.3 11 313 11.1
2004-07-15 07:22:11 51°14.274 2°55.231 317.9 11 312 11.1
2004-07-15 07:22:15 51°14.283 2°55.216 317.1 11.1 312 11.1
2004-07-15 07:22:19 51°14.29 2°55.201 316.6 11.1 311 11
2004-07-15 07:22:25 51°14.302 2°55.179 316.3 11.1 310 10.9
2004-07-15 07:22:29 51°14.31 2°55.163 314.9 11.1 309 10.8
2004-07-15 07:22:35 51°14.322 2°55.14 314.2 11.1 309 10.9
2004-07-15 07:22:39 51°14.33 2°55.125 314.2 11.1 310 10.9
2004-07-15 07:22:45 51°14.342 2°55.103 315 11.1 311 10.8
2004-07-15 07:22:50 51°14.353 2°55.085 316.8 11.3 313 10.5
2004-07-15 07:22:55 51°14.363 2°55.067 317.6 11.5 312 10.9
2004-07-15 07:23:00 51°14.374 2°55.048 317.3 11.7 312 11
2004-07-15 07:23:05 51°14.385 2°55.028 316.8 11.9 311 10.9
2004-07-15 07:23:08 51°14.391 2°55.015 316.3 12.1 310 10.9
2004-07-15 07:23:15 51°14.406 2°54.984 315.2 12.4 309 10.7
2004-07-15 07:23:20 51°14.417 2°54.962 313.7 12.7 307 10.9
2004-07-15 07:23:25 51°14.428 2°54.939 313.6 12.8 307 10.8
2004-07-15 07:23:30 51°14.439 2°54.917 314.2 12.9 308 10.6
2004-07-15 07:23:35 51°14.451 2°54.895 315.6 13.1 311 10.5
2004-07-15 07:23:40 51°14.463 2°54.873 317.4 13.1 311 10.6
2004-07-15 07:23:45 51°14.475 2°54.851 317.9 13.2 311 10.3
2004-07-15 07:23:48 51°14.482 2°54.838 318.5 13.2 312 10.3
2004-07-15 07:23:55 51°14.499 2°54.807 318.6 13.2 311 10.2
2004-07-15 07:24:00 51°14.511 2°54.785 318 13.2 310 10.2
2004-07-15 07:24:05 51°14.522 2°54.762 317.2 13.2 309 10.2
2004-07-15 07:24:09 51°14.531 2°54.743 316.3 13.2 308 10.2
2004-07-15 07:24:15 51°14.543 2°54.713 313.2 13.3 304 10.1
2004-07-15 07:24:19 51°14.55 2°54.693 310.4 13.3 301 10.1
2004-07-15 07:24:25 51°14.561 2°54.662 308.1 13.4 299 10.1
2004-07-15 07:24:28 51°14.566 2°54.646 306.7 13.4 298 9.9
2004-07-15 07:24:35 51°14.578 2°54.61 305.6 13.4 298 10.1
2004-07-15 07:24:40 51°14.587 2°54.584 305 13.4 298 10
2004-07-15 07:24:45 51°14.595 2°54.557 304.7 13.4 297 10
2004-07-15 07:24:49 51°14.602 2°54.536 304.1 13.4 297 10
2004-07-15 07:24:55 51°14.612 2°54.504 303.8 13.5 297 10
2004-07-15 07:24:59 51°14.619 2°54.483 303.8 13.4 297 9.9
2004-07-15 07:25:05 51°14.629 2°54.452 304.1 13.4 298 10
2004-07-15 07:25:10 51°14.638 2°54.425 304.7 13.5 298 10.1
2004-07-15 07:25:15 51°14.647 2°54.399 304.8 13.5 298 10.1
2004-07-15 07:25:20 51°14.656 2°54.373 304.9 13.5 298 10.1
2004-07-15 07:25:23 51°14.661 2°54.357 305.1 13.5 298 10.1
2004-07-15 07:25:29 51°14.672 2°54.326 305.2 13.5 298 10.2
2004-07-15 07:25:35 51°14.682 2°54.294 305.1 13.5 298 10.1
2004-07-15 07:25:40 51°14.691 2°54.268 304.8 13.4 298 10.1
2004-07-15 07:25:45 51°14.7 2°54.242 304.7 13.5 297 10.2
2004-07-15 07:25:47 51°14.704 2°54.232 304.7 13.5 298 10.2
2004-07-15 07:25:55 51°14.72 2°54.191 304.9 13.4 299 10.1
2004-07-15 07:26:00 51°14.728 2°54.165 305.5 13.4 299 10
2004-07-15 07:26:03 51°14.733 2°54.149 305.6 13.4 299 10
2004-07-15 07:26:11 51°14.75 2°54.108 305.8 13.4 299 10.1
2004-07-15 07:26:15 51°14.758 2°54.087 305.7 13.4 298 10
2004-07-15 07:26:20 51°14.767 2°54.062 305.1 13.4 298 9.9
2004-07-15 07:26:25 51°14.776 2°54.036 304.8 13.4 298 9.8
2004-07-15 07:26:31 51°14.786 2°54.005 304.7 13.3 298 9.7
2004-07-15 07:26:35 51°14.793 2°53.984 304.7 13.4 298 9.5
2004-07-15 07:26:40 51°14.801 2°53.958 304.9 13.3 298 9.6
2004-07-15 07:26:45 51°14.81 2°53.932 305.3 13.3 299 9.5
2004-07-15 07:26:51 51°14.82 2°53.901 305.8 13.3 299 9.5
2004-07-15 07:26:55 51°14.827 2°53.88 306 13.3 299 9.5
2004-07-15 07:27:00 51°14.835 2°53.853 306 13.3 298 9.7
2004-07-15 07:27:05 51°14.844 2°53.826 305.5 13.3 298 9.5
2004-07-15 07:27:10 51°14.853 2°53.801 305.5 13.3 298 9.7
2004-07-15 07:27:15 51°14.863 2°53.775 305.3 13.3 298 9.6
2004-07-15 07:27:19 51°14.87 2°53.754 305.4 13.3 298 9.5
2004-07-15 07:27:24 51°14.877 2°53.729 305.5 13.3 298 9.5
2004-07-15 07:27:30 51°14.886 2°53.697 305.5 13.4 298 9.7
2004-07-15 07:27:35 51°14.896 2°53.671 305.5 13.3 298 9.6
2004-07-15 07:27:40 51°14.905 2°53.646 305.5 13.4 298 9.7
2004-07-15 07:27:43 51°14.911 2°53.63 305.8 13.4 299 9.7
2004-07-15 07:27:50 51°14.924 2°53.594 306 13.3 299 9.7
2004-07-15 07:27:55 51°14.932 2°53.569 306.2 13.3 299 9.8
2004-07-15 07:27:59 51°14.939 2°53.548 306.3 13.4 299 9.8
2004-07-15 07:28:05 51°14.949 2°53.517 306.4 13.4 299 9.8
2004-07-15 07:28:11 51°14.959 2°53.486 306.4 13.4 299 9.8
2004-07-15 07:28:15 51°14.966 2°53.465 306.1 13.4 298 9.8
2004-07-15 07:28:20 51°14.975 2°53.439 305.8 13.4 298 9.8
2004-07-15 07:28:25 51°14.983 2°53.412 305.5 13.4 298 9.8
2004-07-15 07:28:29 51°14.99 2°53.391 305.5 13.4 298 9.9
2004-07-15 07:28:35 51°15.001 2°53.36 305.5 13.4 298 9.8
2004-07-15 07:28:40 51°15.009 2°53.334 305.8 13.4 298 9.9
2004-07-15 07:28:45 51°15.018 2°53.308 305.8 13.4 298 9.9
2004-07-15 07:28:50 51°15.027 2°53.281 305.5 13.4 298 9.8
2004-07-15 07:28:53 51°15.032 2°53.266 305.4 13.4 297 9.9
2004-07-15 07:29:00 51°15.044 2°53.229 305.3 13.4 298 10
2004-07-15 07:29:05 51°15.053 2°53.203 305.5 13.4 298 10.1
2004-07-15 07:29:10 51°15.061 2°53.177 305.8 13.4 298 9.9
2004-07-15 07:29:15 51°15.07 2°53.151 306.2 13.4 298 10.1
2004-07-15 07:29:20 51°15.079 2°53.125 306.4 13.4 298 10
2004-07-15 07:29:25 51°15.088 2°53.099 306.6 13.4 299 9.8
2004-07-15 07:29:28 51°15.093 2°53.083 306.4 13.4 298 9.7
2004-07-15 07:29:35 51°15.105 2°53.046 306.2 13.4 298 10.1
2004-07-15 07:29:40 51°15.114 2°53.02 306.1 13.4 298 10.1
2004-07-15 07:29:45 51°15.122 2°52.994 305.6 13.4 297 10.2
2004-07-15 07:29:49 51°15.129 2°52.973 305.6 13.5 298 10.4
2004-07-15 07:29:55 51°15.14 2°52.941 305.8 13.4 298 10.3
2004-07-15 07:30:00 51°15.148 2°52.915 306.2 13.4 298 10.5
2004-07-15 07:30:05 51°15.157 2°52.889 306.3 13.4 298 10.5
2004-07-15 07:30:09 51°15.164 2°52.867 306.3 13.4 296 10.6
2004-07-15 07:30:15 51°15.173 2°52.835 304.3 13.5 293 10.6
2004-07-15 07:30:19 51°15.179 2°52.812 301 13.5 291 10.7
2004-07-15 07:30:25 51°15.186 2°52.779 298.6 13.5 289 10.7
2004-07-15 07:30:29 51°15.191 2°52.756 297.1 13.6 288 10.8
2004-07-15 07:30:35 51°15.198 2°52.722 296.1 13.5 287 10.9
2004-07-15 07:30:40 51°15.203 2°52.693 294.7 13.6 287 10.9
2004-07-15 07:30:44 51°15.208 2°52.67 294.2 13.6 286 10.9
2004-07-15 07:30:51 51°15.215 2°52.629 293.9 13.6 286 11.1
2004-07-15 07:30:55 51°15.219 2°52.606 293.8 13.6 286 11
2004-07-15 07:31:00 51°15.225 2°52.577 293.9 13.6 286 11.2
2004-07-15 07:31:05 51°15.23 2°52.548 293.9 13.7 286 11.2
2004-07-15 07:31:09 51°15.234 2°52.525 294.1 13.7 286 11.3
2004-07-15 07:31:15 51°15.24 2°52.49 294.2 13.6 286 11.4
2004-07-15 07:31:19 51°15.245 2°52.467 294 13.7 286 11.3
2004-07-15 07:31:24 51°15.25 2°52.438 294 13.7 286 11.4
2004-07-15 07:31:29 51°15.255 2°52.409 293.8 13.7 286 11.4
2004-07-15 07:31:34 51°15.26 2°52.38 294.3 13.7 286 11.4
2004-07-15 07:31:40 51°15.266 2°52.345 294.4 13.7 286 11.5
2004-07-15 07:31:43 51°15.269 2°52.327 294.3 13.7 285 11.6
2004-07-15 07:31:50 51°15.275 2°52.286 291.8 13.7 282 11.6
2004-07-15 07:31:55 51°15.279 2°52.256 290.4 13.8 280 11.6
2004-07-15 07:31:59 51°15.281 2°52.232 288.8 13.8 279 11.6
2004-07-15 07:32:05 51°15.285 2°52.196 287.4 13.8 279 11.8
2004-07-15 07:32:08 51°15.286 2°52.177 286.5 13.9 278 11.8
2004-07-15 07:32:15 51°15.29 2°52.135 286.1 13.9 278 11.8
2004-07-15 07:32:19 51°15.292 2°52.111 286 13.9 278 11.9
2004-07-15 07:32:24 51°15.294 2°52.08 285.7 13.9 278 12
2004-07-15 07:32:30 51°15.298 2°52.044 285.8 13.9 278 12.1
2004-07-15 07:32:35 51°15.3 2°52.013 285.9 13.9 278 12.1
2004-07-15 07:32:40 51°15.303 2°51.983 285.9 13.9 277 12.1
2004-07-15 07:32:44 51°15.305 2°51.958 285.9 13.9 278 12.2
2004-07-15 07:32:49 51°15.307 2°51.928 284.6 13.9 274 12.2
2004-07-15 07:32:55 51°15.308 2°51.891 281.8 13.9 272 12.2
2004-07-15 07:33:00 51°15.308 2°51.86 279.8 14 270 12.2
2004-07-15 07:33:05 51°15.308 2°51.829 277.5 14 269 12.3
2004-07-15 07:33:11 51°15.307 2°51.792 276.1 13.9 268 12.4
2004-07-15 07:33:15 51°15.306 2°51.767 275 14 268 12.3
2004-07-15 07:33:20 51°15.305 2°51.736 274 14 266 12.3
2004-07-15 07:33:25 51°15.304 2°51.705 273.7 14 267 12.3
2004-07-15 07:33:29 51°15.303 2°51.68 273.5 14 266 12.3
2004-07-15 07:33:35 51°15.302 2°51.643 273.4 14 266 12.3
2004-07-15 07:33:40 51°15.3 2°51.612 273.2 14 265 12.4
2004-07-15 07:33:45 51°15.297 2°51.582 272.1 14 263 12.3
2004-07-15 07:33:51 51°15.293 2°51.545 269.5 14 261 12.4
2004-07-15 07:33:55 51°15.29 2°51.521 266.7 14 259 12.3
2004-07-15 07:34:00 51°15.286 2°51.49 265.2 14.1 258 12.4
2004-07-15 07:34:05 51°15.282 2°51.46 264.1 14.1 258 12.5
2004-07-15 07:34:09 51°15.279 2°51.435 263.7 14.1 258 12.5
2004-07-15 07:34:15 51°15.274 2°51.399 263.4 14.1 257 12.3
2004-07-15 07:34:20 51°15.269 2°51.368 263.4 14.1 257 12.5
2004-07-15 07:34:25 51°15.265 2°51.338 262.9 14.2 257 12.5
2004-07-15 07:34:30 51°15.261 2°51.307 262.7 14.2 257 12.6
2004-07-15 07:34:35 51°15.256 2°51.277 262.7 14.2 257 12.5
2004-07-15 07:34:40 51°15.252 2°51.246 262.7 14.2 257 12.5
2004-07-15 07:34:44 51°15.248 2°51.222 262.9 14.2 257 12.5
2004-07-15 07:34:49 51°15.244 2°51.191 263.1 14.2 258 12.6
2004-07-15 07:34:55 51°15.239 2°51.154 263.4 14.2 259 12.6
2004-07-15 07:35:00 51°15.235 2°51.124 264.2 14.2 260 12.6
2004-07-15 07:35:05 51°15.232 2°51.093 265.3 14.2 260 12.6
2004-07-15 07:35:10 51°15.229 2°51.062 266.2 14.1 260 12.6
2004-07-15 07:35:15 51°15.226 2°51.031 266.6 14.1 260 12.6
2004-07-15 07:35:20 51°15.223 2°51 267 14.2 261 12.7
2004-07-15 07:35:25 51°15.219 2°50.97 267 14.1 261 12.7
2004-07-15 07:35:29 51°15.217 2°50.945 267 14.2 260 12.7
2004-07-15 07:35:35 51°15.213 2°50.908 266.6 14.2 260 12.7
2004-07-15 07:35:40 51°15.21 2°50.877 266.8 14.2 260 12.7
2004-07-15 07:35:44 51°15.207 2°50.853 266.8 14.1 261 12.7
2004-07-15 07:35:50 51°15.203 2°50.816 267 14.1 260 12.8
2004-07-15 07:35:55 51°15.2 2°50.785 267 14.1 261 12.7
2004-07-15 07:36:00 51°15.197 2°50.754 267.4 14.1 262 12.7
2004-07-15 07:36:05 51°15.194 2°50.723 267.6 14.1 262 12.8
2004-07-15 07:36:11 51°15.191 2°50.686 267.7 14.1 262 12.8
2004-07-15 07:36:15 51°15.189 2°50.661 267.9 14.1 262 12.8
2004-07-15 07:36:20 51°15.187 2°50.631 268.5 14.1 263 12.8
2004-07-15 07:36:25 51°15.184 2°50.6 268.5 14 262 12.8
2004-07-15 07:36:31 51°15.181 2°50.563 268.3 14.1 262 12.8
2004-07-15 07:36:35 51°15.178 2°50.538 267.6 14 262 12.9
2004-07-15 07:36:39 51°15.176 2°50.514 267.2 14 261 12.8
2004-07-15 07:36:45 51°15.173 2°50.477 267.1 14 262 12.9
2004-07-15 07:36:51 51°15.169 2°50.44 267.3 14 262 12.9
2004-07-15 07:36:55 51°15.167 2°50.415 267.3 14.1 261 13
2004-07-15 07:37:00 51°15.164 2°50.385 267 14.1 261 12.9
2004-07-15 07:37:05 51°15.161 2°50.354 267.1 14 262 12.8
2004-07-15 07:37:09 51°15.159 2°50.329 267.6 14 262 12.9
2004-07-15 07:37:12 51°15.157 2°50.311 267.6 14 261 12.9
2004-07-15 07:37:19 51°15.153 2°50.268 267.3 14 262 13
2004-07-15 07:37:25 51°15.15 2°50.231 267.1 14.1 261 13
2004-07-15 07:37:30 51°15.147 2°50.2 267.5 14 262 12.8
2004-07-15 07:37:35 51°15.145 2°50.169 267.7 14.1 262 12.9
2004-07-15 07:37:39 51°15.143 2°50.145 267.7 14 262 12.9
2004-07-15 07:37:45 51°15.139 2°50.108 267.3 14 261 12.9
2004-07-15 07:37:49 51°15.137 2°50.083 267.7 14 262 12.9
2004-07-15 07:37:55 51°15.134 2°50.047 267.7 14 261 12.9
2004-07-15 07:38:00 51°15.131 2°50.016 267.4 14 262 12.9
2004-07-15 07:38:05 51°15.127 2°49.986 267.7 14 261 13
2004-07-15 07:38:09 51°15.125 2°49.962 267.5 14 262 12.9
2004-07-15 07:38:15 51°15.122 2°49.925 267.8 14 261 12.9
2004-07-15 07:38:20 51°15.119 2°49.894 267.5 14 262 12.9
2004-07-15 07:38:25 51°15.116 2°49.863 267.7 14 261 12.9
2004-07-15 07:38:30 51°15.113 2°49.833 267.6 14 262 12.9
2004-07-15 07:38:35 51°15.111 2°49.802 267.8 14 262 12.9
2004-07-15 07:38:40 51°15.108 2°49.772 268 14 262 13
2004-07-15 07:38:45 51°15.106 2°49.741 268 14 262 13
2004-07-15 07:38:49 51°15.103 2°49.716 268 14 262 13
2004-07-15 07:38:55 51°15.1 2°49.679 267.9 14 262 13
2004-07-15 07:39:00 51°15.098 2°49.649 268.2 14 262 13.1
2004-07-15 07:39:05 51°15.095 2°49.618 268.5 14 262 13
2004-07-15 07:39:11 51°15.092 2°49.581 268.2 14 262 12.9
2004-07-15 07:39:15 51°15.09 2°49.556 268.2 14 262 13
2004-07-15 07:39:20 51°15.087 2°49.526 268 14 262 12.9
2004-07-15 07:39:25 51°15.084 2°49.495 268.2 14 263 13
2004-07-15 07:39:30 51°15.081 2°49.465 267.8 14 261 13
2004-07-15 07:39:35 51°15.078 2°49.434 267.5 14 261 12.9
2004-07-15 07:39:39 51°15.076 2°49.41 267.1 14 261 13
2004-07-15 07:39:45 51°15.072 2°49.373 266.3 14 260 12.9
2004-07-15 07:39:49 51°15.07 2°49.348 266.3 14 260 12.9
2004-07-15 07:39:55 51°15.066 2°49.311 266.2 14 261 12.9
2004-07-15 07:39:59 51°15.063 2°49.287 266.1 14 260 12.9
2004-07-15 07:40:04 51°15.06 2°49.256 266 14.1 261 12.9
2004-07-15 07:40:10 51°15.056 2°49.22 266.1 14 261 13
2004-07-15 07:40:15 51°15.053 2°49.189 266.2 14 260 12.9
2004-07-15 07:40:20 51°15.049 2°49.158 265.8 14.1 260 13
2004-07-15 07:40:25 51°15.046 2°49.128 265.8 14 261 13
2004-07-15 07:40:29 51°15.044 2°49.103 266 14 260 13
2004-07-15 07:40:35 51°15.04 2°49.067 265.9 14 260 13
2004-07-15 07:40:39 51°15.037 2°49.042 265.9 14 261 13
2004-07-15 07:40:45 51°15.033 2°49.005 266.3 14 261 13
2004-07-15 07:40:49 51°15.031 2°48.981 266.3 14 261 13.1
2004-07-15 07:40:55 51°15.027 2°48.944 266.3 14 261 12.9
2004-07-15 07:40:59 51°15.025 2°48.919 266.4 14 261 12.9
2004-07-15 07:41:04 51°15.022 2°48.889 266.4 14 261 12.9
2004-07-15 07:41:10 51°15.018 2°48.852 266.3 14 260 12.9
2004-07-15 07:41:15 51°15.015 2°48.822 266.3 14 261 12.9
2004-07-15 07:41:20 51°15.012 2°48.791 266.5 13.9 261 12.9
2004-07-15 07:41:25 51°15.008 2°48.761 266.4 14 261 12.8
2004-07-15 07:41:29 51°15.006 2°48.736 266.4 14 261 12.8
2004-07-15 07:41:35 51°15.002 2°48.699 266.6 13.9 262 12.9
2004-07-15 07:41:39 51°15 2°48.675 266.8 13.9 261 12.8
2004-07-15 07:41:45 51°14.996 2°48.638 266.7 14 261 12.8
2004-07-15 07:41:49 51°14.994 2°48.614 266.9 14 261 12.8
2004-07-15 07:41:55 51°14.991 2°48.577 266.8 13.9 262 12.8
2004-07-15 07:41:59 51°14.988 2°48.553 266.9 13.9 261 12.8
2004-07-15 07:42:04 51°14.985 2°48.523 266.8 13.9 261 12.8
2004-07-15 07:42:10 51°14.981 2°48.486 266.6 13.9 261 12.8
2004-07-15 07:42:15 51°14.978 2°48.456 266.2 13.9 260 12.9
2004-07-15 07:42:20 51°14.975 2°48.425 265.6 13.9 260 12.9
2004-07-15 07:42:25 51°14.971 2°48.395 265.2 13.9 260 12.9
2004-07-15 07:42:29 51°14.968 2°48.371 265.4 13.9 260 13
2004-07-15 07:42:35 51°14.965 2°48.334 266 13.9 261 13
2004-07-15 07:42:39 51°14.962 2°48.31 266.2 13.9 261 13.1
2004-07-15 07:42:45 51°14.959 2°48.273 266.4 13.9 261 13.1
2004-07-15 07:42:49 51°14.956 2°48.249 266.3 13.9 260 13.1
2004-07-15 07:42:55 51°14.952 2°48.213 265.9 13.9 260 13.1
2004-07-15 07:42:59 51°14.949 2°48.189 265.6 13.9 260 13.2
2004-07-15 07:43:04 51°14.946 2°48.159 265.6 13.9 260 13.1
2004-07-15 07:43:10 51°14.942 2°48.122 265.6 13.9 260 13.2
2004-07-15 07:43:15 51°14.939 2°48.092 265.9 13.8 260 13.2
2004-07-15 07:43:20 51°14.936 2°48.062 266.1 13.8 261 13.2
2004-07-15 07:43:25 51°14.932 2°48.032 266.3 13.8 260 13.2
2004-07-15 07:43:29 51°14.93 2°48.007 266 13.8 261 13.2
2004-07-15 07:43:35 51°14.926 2°47.971 265.6 13.8 261 13.2
2004-07-15 07:43:39 51°14.924 2°47.947 265.9 13.8 260 13.2
2004-07-15 07:43:45 51°14.92 2°47.911 265.8 13.8 260 13.3
2004-07-15 07:43:49 51°14.917 2°47.887 265.8 13.8 260 13.2
2004-07-15 07:43:55 51°14.913 2°47.851 265.8 13.8 260 13.2
2004-07-15 07:43:59 51°14.911 2°47.826 265.8 13.8 260 13.2
2004-07-15 07:44:04 51°14.908 2°47.796 265.8 13.8 261 13.2
2004-07-15 07:44:10 51°14.904 2°47.76 265.8 13.8 260 13.2
2004-07-15 07:44:15 51°14.901 2°47.73 265.7 13.7 261 13.2
2004-07-15 07:44:20 51°14.897 2°47.7 266.1 13.8 260 13.3
2004-07-15 07:44:25 51°14.894 2°47.67 266.4 13.7 261 13.3
2004-07-15 07:44:29 51°14.892 2°47.646 266.3 13.7 260 13.2
2004-07-15 07:44:35 51°14.888 2°47.611 266.1 13.7 260 13.3
2004-07-15 07:44:40 51°14.885 2°47.581 265.9 13.7 261 13.3
2004-07-15 07:44:45 51°14.881 2°47.551 265.9 13.7 260 13.3
2004-07-15 07:44:51 51°14.878 2°47.515 266.1 13.7 261 13.3
2004-07-15 07:44:55 51°14.876 2°47.491 266.6 13.7 261 13.2
2004-07-15 07:45:00 51°14.873 2°47.461 266.8 13.7 261 13.2
2004-07-15 07:45:05 51°14.87 2°47.431 266.8 13.7 261 13.2
2004-07-15 07:45:10 51°14.867 2°47.401 266.7 13.7 261 13.2
2004-07-15 07:45:15 51°14.864 2°47.371 266.5 13.7 260 13.1
2004-07-15 07:45:20 51°14.861 2°47.341 266.3 13.7 261 13.1
2004-07-15 07:45:25 51°14.858 2°47.312 266.3 13.7 260 13
2004-07-15 07:45:29 51°14.855 2°47.288 266.2 13.7 260 13
2004-07-15 07:45:35 51°14.852 2°47.252 265.7 13.7 261 12.8
2004-07-15 07:45:40 51°14.849 2°47.222 265.9 13.7 261 12.8
2004-07-15 07:45:45 51°14.846 2°47.193 266.5 13.7 261 12.6
2004-07-15 07:45:49 51°14.844 2°47.169 266.6 13.7 261 12.5
2004-07-15 07:45:55 51°14.84 2°47.133 267 13.7 260 12.5
2004-07-15 07:45:59 51°14.838 2°47.109 266.5 13.7 261 12.2
2004-07-15 07:46:04 51°14.835 2°47.08 266.3 13.6 260 12.5
2004-07-15 07:46:09 51°14.832 2°47.05 266.2 13.6 261 12.1
2004-07-15 07:46:15 51°14.828 2°47.014 265.9 13.6 260 11.8
2004-07-15 07:46:19 51°14.826 2°46.99 266 13.6 261 12
2004-07-15 07:46:25 51°14.822 2°46.955 266 13.7 260 11.7
2004-07-15 07:46:30 51°14.819 2°46.925 265.9 13.7 260 12
2004-07-15 07:46:35 51°14.815 2°46.895 265.9 13.6 260 11.4
2004-07-15 07:46:40 51°14.813 2°46.866 265.8 13.6 260 11.7
2004-07-15 07:46:45 51°14.809 2°46.836 265.7 13.6 260 11.2
2004-07-15 07:46:50 51°14.806 2°46.807 265.5 13.6 260 11.2
2004-07-15 07:46:55 51°14.803 2°46.777 265.6 13.6 259 10.9
2004-07-15 07:47:00 51°14.8 2°46.747 265.4 13.6 261 10.9
2004-07-15 07:47:05 51°14.797 2°46.718 266.1 13.6 261 10.9
2004-07-15 07:47:11 51°14.794 2°46.682 266.2 13.6 261 10.6
2004-07-15 07:47:15 51°14.791 2°46.659 266.7 13.6 260 10.5
2004-07-15 07:47:20 51°14.788 2°46.629 266.4 13.6 261 10.4
2004-07-15 07:47:25 51°14.785 2°46.6 266.4 13.5 260 10
2004-07-15 07:47:29 51°14.783 2°46.576 266 13.5 261 9.9
2004-07-15 07:47:35 51°14.779 2°46.541 266 13.5 261 9.9
2004-07-15 07:47:40 51°14.776 2°46.511 266.2 13.5 261 9.8
2004-07-15 07:47:45 51°14.773 2°46.482 266.7 13.5 261 9.7
2004-07-15 07:47:51 51°14.77 2°46.446 266.6 13.5 262 9.5
2004-07-15 07:47:55 51°14.768 2°46.423 267 13.5 261 9.4
2004-07-15 07:48:00 51°14.766 2°46.393 267.3 13.5 262 9.5
2004-07-15 07:48:05 51°14.763 2°46.363 267.8 13.5 262 9.6
2004-07-15 07:48:10 51°14.76 2°46.334 268.1 13.5 262 9.4
2004-07-15 07:48:15 51°14.758 2°46.304 268.1 13.5 262 9.4
2004-07-15 07:48:20 51°14.755 2°46.275 267.8 13.5 262 9
2004-07-15 07:48:25 51°14.752 2°46.245 267.4 13.5 261 9.2
2004-07-15 07:48:31 51°14.748 2°46.21 266.6 13.6 260 9.2
2004-07-15 07:48:35 51°14.746 2°46.186 266.1 13.6 260 9.1
2004-07-15 07:48:40 51°14.742 2°46.157 265.9 13.6 259 9.2
2004-07-15 07:48:45 51°14.739 2°46.127 265.5 13.6 260 9.1
2004-07-15 07:48:48 51°14.737 2°46.11 265.5 13.6 259 9.1
2004-07-15 07:48:55 51°14.733 2°46.068 265.4 13.6 260 9
2004-07-15 07:49:00 51°14.729 2°46.039 265.6 13.6 260 9
2004-07-15 07:49:05 51°14.727 2°46.009 265.6 13.6 261 9.1
2004-07-15 07:49:10 51°14.724 2°45.979 266.5 13.6 261 9.1
2004-07-15 07:49:15 51°14.721 2°45.95 267 13.7 262 9.1
2004-07-15 07:49:19 51°14.719 2°45.926 267.6 13.6 262 9.1
2004-07-15 07:49:25 51°14.716 2°45.89 268 13.7 262 9.2
2004-07-15 07:49:31 51°14.713 2°45.854 268.3 13.7 263 9.2
2004-07-15 07:49:35 51°14.711 2°45.83 268.3 13.7 262 9.3
2004-07-15 07:49:40 51°14.709 2°45.8 268 13.7 262 9.4
2004-07-15 07:49:45 51°14.705 2°45.77 267.4 13.7 261 9.5
2004-07-15 07:49:50 51°14.702 2°45.74 267 13.7 262 9.6
2004-07-15 07:49:55 51°14.699 2°45.71 266.6 13.8 261 9.7
2004-07-15 07:49:59 51°14.697 2°45.686 266.4 13.8 259 9.8
2004-07-15 07:50:05 51°14.693 2°45.65 265.9 13.8 261 9.9
2004-07-15 07:50:09 51°14.69 2°45.626 265.5 13.8 259 10.2
2004-07-15 07:50:15 51°14.686 2°45.589 265.5 13.9 260 10.1
2004-07-15 07:50:19 51°14.683 2°45.565 265.6 13.9 260 10.4
2004-07-15 07:50:25 51°14.679 2°45.529 265.9 13.9 261 10.5
2004-07-15 07:50:31 51°14.676 2°45.492 266.5 13.9 261 10.7
2004-07-15 07:50:35 51°14.673 2°45.468 266.9 13.9 261 10.8
2004-07-15 07:50:39 51°14.671 2°45.444 266.8 13.9 261 10.9
2004-07-15 07:50:45 51°14.667 2°45.408 266.9 13.9 260 11.1
2004-07-15 07:50:49 51°14.664 2°45.383 266.4 13.9 261 11.2
2004-07-15 07:50:55 51°14.66 2°45.347 266 13.9 260 11.3
2004-07-15 07:50:59 51°14.658 2°45.323 265.7 13.9 260 11.4
2004-07-15 07:51:05 51°14.654 2°45.287 265.7 13.9 260 11.5
2004-07-15 07:51:08 51°14.652 2°45.269 265.8 13.9 260 11.6
2004-07-15 07:51:15 51°14.647 2°45.226 265.7 13.9 260 11.7
2004-07-15 07:51:19 51°14.644 2°45.202 265.8 13.9 260 11.8
2004-07-15 07:51:25 51°14.64 2°45.166 265.7 13.9 260 11.9
2004-07-15 07:51:30 51°14.637 2°45.136 265.8 13.9 260 12
2004-07-15 07:51:35 51°14.634 2°45.105 265.8 13.9 260 12.2
2004-07-15 07:51:40 51°14.63 2°45.075 265.5 13.9 260 12.3
2004-07-15 07:51:45 51°14.627 2°45.045 265.7 13.9 260 12.4
2004-07-15 07:51:51 51°14.623 2°45.009 265.6 13.9 260 12.5
2004-07-15 07:51:55 51°14.62 2°44.985 265.6 13.9 260 12.7
2004-07-15 07:52:00 51°14.617 2°44.954 265.8 13.8 260 12.8
2004-07-15 07:52:05 51°14.614 2°44.924 266 13.8 260 12.9
2004-07-15 07:52:09 51°14.612 2°44.9 266 13.9 260 13.1
2004-07-15 07:52:15 51°14.608 2°44.864 266.3 13.9 261 13.3
2004-07-15 07:52:20 51°14.605 2°44.833 266.5 13.9 261 13.4
2004-07-15 07:52:25 51°14.601 2°44.803 266.3 13.9 260 13.5
2004-07-15 07:52:31 51°14.598 2°44.766 266 13.9 260 13.7
2004-07-15 07:52:35 51°14.595 2°44.742 265.7 13.9 259 13.8
2004-07-15 07:52:40 51°14.592 2°44.712 265.6 13.9 261 13.9
2004-07-15 07:52:45 51°14.588 2°44.682 266 13.9 260 14.1
2004-07-15 07:52:49 51°14.586 2°44.658 265.9 13.9 260 14.1
2004-07-15 07:52:55 51°14.582 2°44.621 266.3 13.9 261 14.3
2004-07-15 07:53:00 51°14.578 2°44.591 266.2 13.9 260 14.4
2004-07-15 07:53:05 51°14.575 2°44.56 266.2 13.9 261 14.5
2004-07-15 07:53:11 51°14.571 2°44.524 266.3 13.9 261 14.6
2004-07-15 07:53:15 51°14.569 2°44.5 266.5 13.9 260 14.6
2004-07-15 07:53:20 51°14.566 2°44.469 266.4 13.9 260 14.7
2004-07-15 07:53:25 51°14.562 2°44.439 266.3 13.9 260 14.8
2004-07-15 07:53:30 51°14.559 2°44.409 265.9 13.9 260 14.9
2004-07-15 07:53:35 51°14.556 2°44.379 265.6 13.9 260 14.9
2004-07-15 07:53:39 51°14.553 2°44.354 265.7 13.9 260 15
2004-07-15 07:53:45 51°14.549 2°44.318 265.8 14 260 15.1
2004-07-15 07:53:49 51°14.547 2°44.294 266 13.9 260 15.2
2004-07-15 07:53:55 51°14.543 2°44.257 266.1 13.9 260 15.2
2004-07-15 07:53:59 51°14.54 2°44.233 266.2 13.9 260 15.3
2004-07-15 07:54:04 51°14.537 2°44.203 266 13.9 260 15.4
2004-07-15 07:54:10 51°14.533 2°44.166 265.6 13.9 260 15.5
2004-07-15 07:54:15 51°14.529 2°44.136 265.9 13.9 260 15.7
2004-07-15 07:54:20 51°14.527 2°44.106 265.9 13.9 261 15.8
2004-07-15 07:54:25 51°14.523 2°44.075 266.1 13.9 260 15.9
2004-07-15 07:54:30 51°14.52 2°44.045 266.2 13.8 262 16
2004-07-15 07:54:35 51°14.518 2°44.015 266.6 13.9 262 16.2
2004-07-15 07:54:40 51°14.516 2°43.984 268.7 13.8 264 16.3
2004-07-15 07:54:45 51°14.514 2°43.954 269.9 13.8 264 16.2
2004-07-15 07:54:51 51°14.513 2°43.917 271 13.8 266 15.9
2004-07-15 07:54:55 51°14.512 2°43.893 272 13.8 267 16.3
2004-07-15 07:55:00 51°14.511 2°43.863 272.6 13.8 267 16.4
2004-07-15 07:55:05 51°14.51 2°43.832 272.9 13.8 267 16.2
2004-07-15 07:55:08 51°14.509 2°43.814 273.3 13.8 268 16.3
2004-07-15 07:55:15 51°14.508 2°43.772 273.6 13.8 268 15.9
2004-07-15 07:55:19 51°14.508 2°43.747 273.5 13.8 268 16.5
2004-07-15 07:55:25 51°14.506 2°43.711 273.3 13.8 267 16.7
2004-07-15 07:55:30 51°14.506 2°43.68 272.9 13.7 267 16.6
2004-07-15 07:55:35 51°14.504 2°43.65 272.7 13.8 266 16.2
2004-07-15 07:55:40 51°14.503 2°43.62 272.3 13.8 267 16.4
2004-07-15 07:55:44 51°14.502 2°43.595 272.4 13.8 267 15.9
2004-07-15 07:55:50 51°14.501 2°43.559 272.5 13.8 267 16
2004-07-15 07:55:55 51°14.5 2°43.528 272.4 13.8 266 16.3
2004-07-15 07:55:59 51°14.499 2°43.504 272.2 13.9 266 16.4
2004-07-15 07:56:05 51°14.497 2°43.467 272.1 13.9 266 16.8
2004-07-15 07:56:09 51°14.496 2°43.443 272 13.8 266 16.9
2004-07-15 07:56:15 51°14.495 2°43.406 272 13.9 267 16.8
2004-07-15 07:56:20 51°14.494 2°43.375 272.3 13.9 267 17.1
2004-07-15 07:56:25 51°14.493 2°43.344 272.5 13.8 267 17.2
2004-07-15 07:56:29 51°14.492 2°43.32 272.2 13.9 266 17.4
2004-07-15 07:56:35 51°14.491 2°43.283 272.5 13.8 267 17
2004-07-15 07:56:40 51°14.49 2°43.253 272.5 13.9 267 17.2
2004-07-15 07:56:44 51°14.489 2°43.228 272.2 13.9 267 17.5
2004-07-15 07:56:49 51°14.488 2°43.198 272.4 13.9 267 17.6
2004-07-15 07:56:55 51°14.486 2°43.161 272.6 13.9 267 17.6
2004-07-15 07:57:00 51°14.485 2°43.13 272.4 13.9 267 17.6
2004-07-15 07:57:05 51°14.484 2°43.1 272.5 13.9 267 17.7
2004-07-15 07:57:11 51°14.483 2°43.063 272.4 13.9 266 17.7
2004-07-15 07:57:15 51°14.482 2°43.038 272.1 13.9 266 17.8
2004-07-15 07:57:19 51°14.481 2°43.014 272.2 13.9 267 17.8
2004-07-15 07:57:25 51°14.48 2°42.977 272.8 13.8 268 17.8
2004-07-15 07:57:28 51°14.48 2°42.959 273.6 13.8 268 17.9
2004-07-15 07:57:35 51°14.479 2°42.916 274.4 13.8 269 17.9
2004-07-15 07:57:40 51°14.479 2°42.885 274.5 13.8 269 17.9
2004-07-15 07:57:45 51°14.478 2°42.855 274.5 13.8 269 17.9
2004-07-15 07:57:49 51°14.478 2°42.831 274.3 13.8 269 17.8
2004-07-15 07:57:55 51°14.478 2°42.794 274.5 13.8 269 17.9
2004-07-15 07:58:00 51°14.477 2°42.764 274.5 13.8 269 17.9
2004-07-15 07:58:05 51°14.477 2°42.733 274.3 13.8 269 17.9
2004-07-15 07:58:09 51°14.476 2°42.709 274.1 13.8 268 18
2004-07-15 07:58:15 51°14.476 2°42.672 274.3 13.8 269 17.9
2004-07-15 07:58:19 51°14.476 2°42.648 274.6 13.8 269 18
2004-07-15 07:58:25 51°14.475 2°42.611 274.7 13.8 269 18
2004-07-15 07:58:31 51°14.475 2°42.575 274.7 13.8 269 18
2004-07-15 07:58:35 51°14.475 2°42.551 274.3 13.8 268 17.9
2004-07-15 07:58:40 51°14.474 2°42.52 274.3 13.7 268 18
2004-07-15 07:58:45 51°14.474 2°42.49 274.4 13.7 268 17.9
2004-07-15 07:58:49 51°14.473 2°42.466 274.6 13.6 269 17.9
2004-07-15 07:58:55 51°14.473 2°42.43 274.6 13.7 268 17.8
2004-07-15 07:59:00 51°14.473 2°42.4 274.3 13.7 269 17.9
2004-07-15 07:59:05 51°14.472 2°42.37 274.3 13.6 268 17.9
2004-07-15 07:59:11 51°14.472 2°42.334 274.7 13.6 269 17.7
2004-07-15 07:59:15 51°14.472 2°42.31 274.7 13.6 269 17.6
2004-07-15 07:59:20 51°14.471 2°42.279 275 13.6 269 17.4
2004-07-15 07:59:25 51°14.47 2°42.249 275 13.6 269 17.3
2004-07-15 07:59:30 51°14.47 2°42.22 274.6 13.6 269 17.2
2004-07-15 07:59:35 51°14.47 2°42.19 274.8 13.6 269 16.3
2004-07-15 07:59:40 51°14.469 2°42.16 274.7 13.6 268 16.4
2004-07-15 07:59:45 51°14.469 2°42.13 274.1 13.5 269 16.6
2004-07-15 07:59:51 51°14.468 2°42.094 274.5 13.5 269 16.6
2004-07-15 07:59:55 51°14.468 2°42.07 274.5 13.5 269 16.6
2004-07-15 08:00:00 51°14.467 2°42.04 274.3 13.6 268 16.3
2004-07-15 08:00:05 51°14.467 2°42.01 274.1 13.5 269 16.2
2004-07-15 08:00:10 51°14.466 2°41.981 274.3 13.5 268 16.1
2004-07-15 08:00:15 51°14.466 2°41.951 274.2 13.5 268 16
2004-07-15 08:00:20 51°14.466 2°41.921 274 13.5 269 15.7
2004-07-15 08:00:25 51°14.465 2°41.891 274.1 13.6 268 15.5
2004-07-15 08:00:31 51°14.464 2°41.855 274.3 13.5 269 15.2
2004-07-15 08:00:35 51°14.464 2°41.831 274.3 13.5 270 15.1
2004-07-15 08:00:39 51°14.464 2°41.807 274.6 13.5 268 15.1
2004-07-15 08:00:45 51°14.463 2°41.772 274.4 13.5 268 14.9
2004-07-15 08:00:50 51°14.463 2°41.742 274.2 13.5 269 14.8
2004-07-15 08:00:55 51°14.462 2°41.712 273.8 13.5 268 14.8
2004-07-15 08:01:00 51°14.462 2°41.682 274.3 13.6 269 14.7
2004-07-15 08:01:05 51°14.461 2°41.652 274.4 13.5 269 14.6
2004-07-15 08:01:10 51°14.461 2°41.622 274.3 13.5 268 14.6
2004-07-15 08:01:15 51°14.46 2°41.592 274.3 13.5 267 14.5
2004-07-15 08:01:20 51°14.46 2°41.562 273.7 13.5 269 14.6
2004-07-15 08:01:24 51°14.459 2°41.538 274.3 13.5 268 14.7
2004-07-15 08:01:27 51°14.459 2°41.521 274.3 13.5 269 14.8
2004-07-15 08:01:35 51°14.458 2°41.473 274.7 13.4 269 14.8
2004-07-15 08:01:39 51°14.458 2°41.449 274.3 13.5 267 14.6
2004-07-15 08:01:45 51°14.456 2°41.414 272.5 13.5 265 14.4
2004-07-15 08:01:49 51°14.454 2°41.39 269.6 13.5 263 13.7
2004-07-15 08:01:55 51°14.451 2°41.355 267.9 13.4 262 13
2004-07-15 08:02:00 51°14.447 2°41.326 266.7 13.4 260 13.8
2004-07-15 08:02:05 51°14.444 2°41.296 265.6 13.5 260 14.2
2004-07-15 08:02:11 51°14.439 2°41.261 264.9 13.5 259 14.5
2004-07-15 08:02:15 51°14.436 2°41.238 264 13.6 258 14.5
2004-07-15 08:02:20 51°14.433 2°41.208 263.6 13.6 259 14.7
2004-07-15 08:02:25 51°14.429 2°41.179 263.5 13.5 258 14.9
2004-07-15 08:02:29 51°14.426 2°41.155 262.9 13.6 258 15.1
2004-07-15 08:02:35 51°14.421 2°41.12 263.3 13.5 259 15.1
2004-07-15 08:02:39 51°14.419 2°41.096 264.1 13.6 260 15.1
2004-07-15 08:02:45 51°14.415 2°41.061 265.2 13.6 261 14.7
2004-07-15 08:02:50 51°14.412 2°41.031 265.9 13.5 261 14.3
2004-07-15 08:02:55 51°14.409 2°41.002 266.5 13.5 261 14.3
2004-07-15 08:03:00 51°14.407 2°40.972 266.9 13.5 263 14.6
2004-07-15 08:03:05 51°14.404 2°40.943 267.4 13.4 262 14.4
2004-07-15 08:03:11 51°14.401 2°40.907 267 13.5 261 14.5
2004-07-15 08:03:15 51°14.399 2°40.883 267 13.5 262 14.4
2004-07-15 08:03:20 51°14.397 2°40.854 267 13.5 262 14.4
2004-07-15 08:03:25 51°14.394 2°40.824 267.1 13.5 262 14.2
2004-07-15 08:03:30 51°14.391 2°40.795 267.1 13.5 262 14.1
2004-07-15 08:03:35 51°14.389 2°40.766 267.1 13.4 262 14.2
2004-07-15 08:03:40 51°14.386 2°40.736 267.1 13.5 262 14.2
2004-07-15 08:03:45 51°14.383 2°40.706 266.9 13.5 262 14.1
2004-07-15 08:03:50 51°14.381 2°40.677 267 13.5 262 14
2004-07-15 08:03:55 51°14.378 2°40.647 266.8 13.5 261 14.1
2004-07-15 08:04:00 51°14.375 2°40.618 266.9 13.5 262 14.1
2004-07-15 08:04:05 51°14.373 2°40.588 266.9 13.5 261 13.9
2004-07-15 08:04:10 51°14.37 2°40.559 266.8 13.5 262 13.9
2004-07-15 08:04:15 51°14.367 2°40.529 266.4 13.5 261 13.9
2004-07-15 08:04:20 51°14.364 2°40.5 266.3 13.5 262 13.9
2004-07-15 08:04:25 51°14.361 2°40.47 266.5 13.5 262 14.2
2004-07-15 08:04:30 51°14.359 2°40.441 267 13.5 262 14.4
2004-07-15 08:04:35 51°14.356 2°40.412 267.1 13.5 263 14.5
2004-07-15 08:04:39 51°14.354 2°40.388 267.4 13.5 261 14.5
2004-07-15 08:04:45 51°14.351 2°40.353 266.8 13.5 262 14.4
2004-07-15 08:04:51 51°14.348 2°40.317 266.8 13.4 261 14.4
2004-07-15 08:04:55 51°14.346 2°40.294 266.8 13.5 262 14.1
2004-07-15 08:05:00 51°14.343 2°40.264 266.7 13.5 262 14.1
2004-07-15 08:05:05 51°14.34 2°40.235 267.2 13.4 262 14
2004-07-15 08:05:09 51°14.338 2°40.211 267.2 13.4 261 13.6
2004-07-15 08:05:15 51°14.335 2°40.176 267 13.4 262 12.9
2004-07-15 08:05:20 51°14.332 2°40.147 266.8 13.4 261 12.1
2004-07-15 08:05:25 51°14.33 2°40.118 266.5 13.3 262 12.6
2004-07-15 08:05:29 51°14.327 2°40.095 266.8 13.3 261 13.4
2004-07-15 08:05:35 51°14.325 2°40.06 267 13.3 262 13.6
2004-07-15 08:05:40 51°14.322 2°40.03 267.4 13.5 262 13.7
2004-07-15 08:05:45 51°14.32 2°40.001 267.2 13.5 262 13.8
2004-07-15 08:05:49 51°14.317 2°39.978 267.2 13.4 261 13.8
2004-07-15 08:05:55 51°14.314 2°39.942 266.6 13.4 261 13.8
2004-07-15 08:06:00 51°14.311 2°39.913 266.6 13.5 262 13.8
2004-07-15 08:06:05 51°14.309 2°39.884 267.2 13.3 262 13.8
2004-07-15 08:06:11 51°14.306 2°39.849 266.9 13.5 262 13.9
2004-07-15 08:06:15 51°14.304 2°39.825 267 13.4 262 13.9
2004-07-15 08:06:20 51°14.301 2°39.796 267.4 13.3 262 14.1
2004-07-15 08:06:25 51°14.298 2°39.767 267.1 13.3 262 14
2004-07-15 08:06:30 51°14.296 2°39.737 266.6 13.5 261 14
2004-07-15 08:06:35 51°14.293 2°39.708 267.3 13.4 262 14
2004-07-15 08:06:40 51°14.29 2°39.678 267.3 13.4 261 13.9
2004-07-15 08:06:45 51°14.288 2°39.649 267.1 13.4 263 13.8
2004-07-15 08:06:50 51°14.286 2°39.62 267.4 13.4 262 13.6
2004-07-15 08:06:55 51°14.283 2°39.59 267.6 13.4 262 13.8
2004-07-15 08:07:00 51°14.28 2°39.561 267.3 13.4 262 13.7
2004-07-15 08:07:05 51°14.278 2°39.532 267.2 13.4 262 13.5
2004-07-15 08:07:10 51°14.275 2°39.502 267 13.4 262 14
2004-07-15 08:07:15 51°14.273 2°39.473 267 13.4 262 13.8
2004-07-15 08:07:20 51°14.27 2°39.444 267 13.4 261 13.6
2004-07-15 08:07:25 51°14.267 2°39.414 266.4 13.4 261 13.8
2004-07-15 08:07:31 51°14.262 2°39.38 264.9 13.4 259 13.7
2004-07-15 08:07:35 51°14.259 2°39.356 263.9 13.4 258 13.5
2004-07-15 08:07:40 51°14.255 2°39.327 263.4 13.4 258 13.5
2004-07-15 08:07:45 51°14.251 2°39.298 262.4 13.4 257 13.8
2004-07-15 08:07:48 51°14.248 2°39.281 261.8 13.5 256 13.7
2004-07-15 08:07:55 51°14.242 2°39.241 261.5 13.5 256 13.6
2004-07-15 08:08:00 51°14.238 2°39.212 261.2 13.5 256 13.6
2004-07-15 08:08:05 51°14.233 2°39.183 261.1 13.5 256 13.8
2004-07-15 08:08:10 51°14.229 2°39.154 261.5 13.5 257 13.4
2004-07-15 08:08:15 51°14.224 2°39.125 261.8 13.5 257 12.7
2004-07-15 08:08:20 51°14.22 2°39.096 262 13.5 257 11.3
2004-07-15 08:08:25 51°14.216 2°39.067 262 13.4 257 11.7
2004-07-15 08:08:31 51°14.21 2°39.032 261.9 13.4 256 12
2004-07-15 08:08:35 51°14.207 2°39.009 261.8 13.5 256 12.3
2004-07-15 08:08:40 51°14.202 2°38.979 261.5 13.5 256 12.8
2004-07-15 08:08:45 51°14.198 2°38.95 261.7 13.6 256 13.1
2004-07-15 08:08:51 51°14.193 2°38.916 261.9 13.6 256 13.3
2004-07-15 08:08:55 51°14.189 2°38.892 261.9 13.6 256 13.6
2004-07-15 08:09:00 51°14.185 2°38.863 261.7 13.6 257 13.9
2004-07-15 08:09:05 51°14.18 2°38.834 261.8 13.6 256 14.2
2004-07-15 08:09:09 51°14.177 2°38.81 262.6 13.6 258 13.3
2004-07-15 08:09:15 51°14.172 2°38.775 262.6 13.6 257 13.6
2004-07-15 08:09:20 51°14.168 2°38.746 262.5 13.6 257 13.8
2004-07-15 08:09:25 51°14.163 2°38.716 262.3 13.6 257 13.8
2004-07-15 08:09:30 51°14.159 2°38.687 261.9 13.7 257 14.6
2004-07-15 08:09:35 51°14.154 2°38.657 261.9 13.7 257 15
2004-07-15 08:09:40 51°14.15 2°38.628 261.8 13.7 256 15.7
2004-07-15 08:09:45 51°14.145 2°38.598 261.7 13.7 256 16.1
2004-07-15 08:09:50 51°14.141 2°38.569 262 13.7 257 16.3
2004-07-15 08:09:55 51°14.135 2°38.54 260.7 13.7 254 16.6
2004-07-15 08:10:00 51°14.13 2°38.511 259.1 13.7 253 16.8
2004-07-15 08:10:05 51°14.124 2°38.482 257.9 13.8 252 16.8
2004-07-15 08:10:10 51°14.118 2°38.453 256.9 13.7 252 16.8
2004-07-15 08:10:15 51°14.112 2°38.424 256.1 13.8 252 17
2004-07-15 08:10:19 51°14.107 2°38.401 255.9 13.7 250 17.1
2004-07-15 08:10:25 51°14.099 2°38.367 255.6 13.7 251 17.2
2004-07-15 08:10:31 51°14.091 2°38.333 255.3 13.8 250 17.6
2004-07-15 08:10:35 51°14.086 2°38.31 255.3 13.8 251 17.7
2004-07-15 08:10:40 51°14.08 2°38.281 255.6 13.8 251 18
2004-07-15 08:10:45 51°14.074 2°38.252 255.9 13.8 251 18.1
2004-07-15 08:10:50 51°14.068 2°38.223 255.9 13.8 251 18.3
2004-07-15 08:10:55 51°14.062 2°38.194 255.8 13.8 251 18.5
2004-07-15 08:11:00 51°14.055 2°38.165 255.4 13.8 251 18
2004-07-15 08:11:05 51°14.049 2°38.137 255.4 13.8 251 17.6
2004-07-15 08:11:09 51°14.044 2°38.113 255.7 13.8 251 17.7
2004-07-15 08:11:15 51°14.037 2°38.079 255.8 13.8 251 18.1
2004-07-15 08:11:20 51°14.031 2°38.05 255.6 13.8 251 18.4
2004-07-15 08:11:25 51°14.025 2°38.021 255.4 13.8 251 18.6
2004-07-15 08:11:31 51°14.017 2°37.986 255.9 13.8 252 18.7
2004-07-15 08:11:35 51°14.013 2°37.963 256.1 13.8 252 18.7
2004-07-15 08:11:40 51°14.006 2°37.934 256.3 13.9 251 18.7
2004-07-15 08:11:45 51°14.001 2°37.905 255.8 13.8 252 15.1
2004-07-15 08:11:49 51°13.996 2°37.882 256.1 13.8 251 16.5
2004-07-15 08:11:55 51°13.989 2°37.847 255.9 13.8 252 17.5
2004-07-15 08:12:00 51°13.982 2°37.818 256.1 13.8 251 17.9
2004-07-15 08:12:05 51°13.977 2°37.789 256 13.9 252 18.3
2004-07-15 08:12:10 51°13.97 2°37.76 256.1 13.9 251 18.6
2004-07-15 08:12:15 51°13.964 2°37.731 255.7 13.9 251 18.7
2004-07-15 08:12:19 51°13.959 2°37.708 255.5 13.9 251 19
2004-07-15 08:12:23 51°13.954 2°37.685 255.9 13.9 252 19
2004-07-15 08:12:29 51°13.947 2°37.65 256.1 13.8 251 19.2
2004-07-15 08:12:35 51°13.94 2°37.615 255.8 13.9 252 19.4
2004-07-15 08:12:40 51°13.933 2°37.586 255.6 13.8 251 19.7
2004-07-15 08:12:45 51°13.928 2°37.557 255.8 13.8 252 19.7
2004-07-15 08:12:51 51°13.92 2°37.522 256.1 13.8 252 20
2004-07-15 08:12:55 51°13.915 2°37.499 256.1 13.8 251 19.8
2004-07-15 08:13:00 51°13.909 2°37.47 255.7 13.8 252 20.2
2004-07-15 08:13:05 51°13.903 2°37.441 256.2 13.8 252 20.1
2004-07-15 08:13:11 51°13.896 2°37.406 255.8 13.8 252 20.5
2004-07-15 08:13:15 51°13.892 2°37.383 256.1 13.7 252 20.3
2004-07-15 08:13:19 51°13.887 2°37.36 256.2 13.8 252 20.5
2004-07-15 08:13:25 51°13.88 2°37.325 256.2 13.8 252 20.7
2004-07-15 08:13:31 51°13.872 2°37.29 256 13.8 251 20.8
2004-07-15 08:13:35 51°13.867 2°37.267 255.3 13.8 250 20.9
2004-07-15 08:13:40 51°13.86 2°37.239 254.2 13.8 250 20.8
2004-07-15 08:13:45 51°13.853 2°37.21 253.2 13.8 248 20.2
2004-07-15 08:13:48 51°13.849 2°37.193 252.8 13.8 249 20
2004-07-15 08:13:55 51°13.839 2°37.154 252.6 13.7 247 20
2004-07-15 08:14:00 51°13.831 2°37.126 251 13.8 246 20.3
2004-07-15 08:14:05 51°13.824 2°37.098 249.8 13.8 246 20.2
2004-07-15 08:14:11 51°13.814 2°37.065 249.8 13.8 246 20.6
2004-07-15 08:14:15 51°13.808 2°37.043 248.8 13.8 246 20.8
2004-07-15 08:14:20 51°13.8 2°37.015 248.9 13.8 245 21.1
2004-07-15 08:14:25 51°13.791 2°36.987 248.6 13.8 245 21.3
2004-07-15 08:14:30 51°13.783 2°36.96 248.2 13.8 245 21.2
2004-07-15 08:14:35 51°13.775 2°36.932 248.2 13.8 245 21.2
2004-07-15 08:14:40 51°13.767 2°36.904 248.6 13.8 246 21.5
2004-07-15 08:14:45 51°13.76 2°36.877 248.9 13.8 246 20.5
2004-07-15 08:14:50 51°13.752 2°36.849 249 13.8 245 20.4
2004-07-15 08:14:55 51°13.744 2°36.821 248.6 13.8 246 20.3
2004-07-15 08:14:59 51°13.737 2°36.799 248.5 13.8 246 20.3
2004-07-15 08:15:05 51°13.728 2°36.766 248.2 13.8 246 20.5
2004-07-15 08:15:07 51°13.725 2°36.755 248.8 13.8 246 20.5
2004-07-15 08:15:15 51°13.711 2°36.711 248.5 13.8 246 20.4
2004-07-15 08:15:20 51°13.704 2°36.683 248.6 13.7 245 20.1
2004-07-15 08:15:25 51°13.695 2°36.655 248.2 13.8 245 20.1
2004-07-15 08:15:29 51°13.689 2°36.633 248.3 13.8 246 20.3
2004-07-15 08:15:35 51°13.68 2°36.6 248.8 13.8 246 20.4
2004-07-15 08:15:40 51°13.672 2°36.572 249 13.8 246 20.6
2004-07-15 08:15:45 51°13.664 2°36.544 248.9 13.8 245 19.9
2004-07-15 08:15:50 51°13.656 2°36.517 248.7 13.8 246 19.8
2004-07-15 08:15:55 51°13.648 2°36.489 248.7 13.8 245 20
2004-07-15 08:16:00 51°13.64 2°36.461 248.7 13.8 246 20.2
2004-07-15 08:16:05 51°13.632 2°36.434 249.1 13.7 246 20
2004-07-15 08:16:10 51°13.625 2°36.406 248.9 13.8 246 20.1
2004-07-15 08:16:15 51°13.617 2°36.378 248.9 13.8 246 20.2
2004-07-15 08:16:19 51°13.61 2°36.356 249.1 13.7 246 20.2
2004-07-15 08:16:25 51°13.601 2°36.323 249.1 13.7 246 20.3
2004-07-15 08:16:31 51°13.591 2°36.29 248.3 13.7 245 19.9
2004-07-15 08:16:35 51°13.584 2°36.269 247.5 13.7 243 19.8
2004-07-15 08:16:40 51°13.575 2°36.241 246.6 13.7 243 19.6
2004-07-15 08:16:45 51°13.567 2°36.214 246.1 13.7 243 19.6
2004-07-15 08:16:51 51°13.556 2°36.182 245.5 13.7 242 19.4
2004-07-15 08:16:55 51°13.549 2°36.161 245 13.8 243 19.2
2004-07-15 08:17:00 51°13.54 2°36.134 245.5 13.7 243 18.6
2004-07-15 08:17:05 51°13.532 2°36.107 246 13.6 243 18.6
2004-07-15 08:17:09 51°13.525 2°36.085 245.6 13.7 243 18.6
2004-07-15 08:17:15 51°13.515 2°36.053 245.6 13.7 242 18.4
2004-07-15 08:17:20 51°13.506 2°36.026 246.4 13.6 242 17.9
2004-07-15 08:17:25 51°13.497 2°35.999 245.8 13.6 243 17.9
2004-07-15 08:17:29 51°13.49 2°35.978 246 13.7 243 18
2004-07-15 08:17:35 51°13.48 2°35.945 245.7 13.7 242 18.2
2004-07-15 08:17:40 51°13.471 2°35.918 245.9 13.7 243 18.2
2004-07-15 08:17:45 51°13.462 2°35.892 245.8 13.7 242 18.3
2004-07-15 08:17:50 51°13.453 2°35.865 245.7 13.6 243 18.3
2004-07-15 08:17:55 51°13.445 2°35.838 245.5 13.7 243 18.4
2004-07-15 08:18:00 51°13.436 2°35.811 246 13.7 243 18.4
2004-07-15 08:18:05 51°13.428 2°35.784 246.3 13.7 243 18.6
2004-07-15 08:18:10 51°13.419 2°35.757 246.3 13.7 243 18.5
2004-07-15 08:18:15 51°13.41 2°35.73 246.2 13.7 242 18.4
2004-07-15 08:18:19 51°13.403 2°35.709 245.8 13.7 243 18.3
2004-07-15 08:18:25 51°13.393 2°35.676 245.7 13.7 243 18.4
2004-07-15 08:18:31 51°13.383 2°35.644 245.9 13.7 243 18.2
2004-07-15 08:18:35 51°13.375 2°35.623 246 13.7 243 18.1
2004-07-15 08:18:40 51°13.367 2°35.596 245.9 13.6 243 18.1
2004-07-15 08:18:45 51°13.358 2°35.569 246 13.6 242 18.3
2004-07-15 08:18:50 51°13.35 2°35.542 245.9 13.7 243 18.1
2004-07-15 08:18:55 51°13.341 2°35.515 246.2 13.7 244 18.2
2004-07-15 08:19:00 51°13.333 2°35.488 246.7 13.6 243 18.2
2004-07-15 08:19:05 51°13.324 2°35.461 246.5 13.6 243 18.2
2004-07-15 08:19:11 51°13.314 2°35.429 246.1 13.7 243 18.3
2004-07-15 08:19:15 51°13.307 2°35.407 245.8 13.7 243 18.1
2004-07-15 08:19:20 51°13.298 2°35.38 245.7 13.7 243 18.3
2004-07-15 08:19:25 51°13.29 2°35.353 246.1 13.6 243 18.1
2004-07-15 08:19:29 51°13.283 2°35.332 246.1 13.7 243 18
2004-07-15 08:19:35 51°13.272 2°35.3 246.3 13.7 243 18
2004-07-15 08:19:40 51°13.264 2°35.273 246 13.7 243 18
2004-07-15 08:19:45 51°13.255 2°35.246 245.8 13.7 242 18.1
2004-07-15 08:19:51 51°13.245 2°35.214 246 13.6 243 17.9
2004-07-15 08:19:55 51°13.238 2°35.192 246 13.6 243 17.9
2004-07-15 08:20:00 51°13.229 2°35.165 246.3 13.7 244 18
2004-07-15 08:20:05 51°13.221 2°35.138 246.7 13.7 243 17.9
2004-07-15 08:20:10 51°13.212 2°35.111 246.7 13.7 244 17.7
2004-07-15 08:20:15 51°13.203 2°35.084 246.3 13.7 243 17.8
2004-07-15 08:20:19 51°13.196 2°35.062 245.7 13.8 242 17.8
2004-07-15 08:20:25 51°13.186 2°35.03 245.9 13.8 243 17.9
2004-07-15 08:20:31 51°13.175 2°34.998 246.5 13.6 242 17.9
2004-07-15 08:20:35 51°13.169 2°34.976 246 13.6 244 17.9
2004-07-15 08:20:40 51°13.16 2°34.949 246 13.7 243 18.1
2004-07-15 08:20:45 51°13.151 2°34.922 246 13.8 243 18
2004-07-15 08:20:51 51°13.141 2°34.89 246.3 13.7 244 18.2
2004-07-15 08:20:55 51°13.134 2°34.868 246.4 13.7 243 18.2
2004-07-15 08:21:00 51°13.125 2°34.841 246.2 13.8 243 18.3
2004-07-15 08:21:05 51°13.117 2°34.814 246.2 13.8 243 18.4
2004-07-15 08:21:11 51°13.106 2°34.782 246.1 13.7 243 18.6
2004-07-15 08:21:15 51°13.099 2°34.76 245.9 13.6 243 18.5
2004-07-15 08:21:20 51°13.091 2°34.733 245.9 13.6 243 18.6
2004-07-15 08:21:23 51°13.086 2°34.717 246.2 13.7 243 18.4
2004-07-15 08:21:31 51°13.072 2°34.674 246.7 13.7 244 18.5
2004-07-15 08:21:35 51°13.065 2°34.653 246.5 13.7 242 18.5
2004-07-15 08:21:40 51°13.056 2°34.625 246.1 13.7 243 18.4
2004-07-15 08:21:45 51°13.047 2°34.599 245.9 13.7 242 18.5
2004-07-15 08:21:50 51°13.039 2°34.572 245.6 13.6 243 18.4
2004-07-15 08:21:55 51°13.03 2°34.545 246 13.6 243 18.4
2004-07-15 08:22:00 51°13.022 2°34.518 246.3 13.6 243 18.3
2004-07-15 08:22:05 51°13.013 2°34.491 246.3 13.7 243 18.3
2004-07-15 08:22:10 51°13.005 2°34.464 246.7 13.6 244 18.2
2004-07-15 08:22:15 51°12.996 2°34.438 246.5 13.6 243 18.2
2004-07-15 08:22:19 51°12.989 2°34.417 246.1 13.6 242 18.2
2004-07-15 08:22:25 51°12.978 2°34.385 245.4 13.6 242 18.2
2004-07-15 08:22:31 51°12.968 2°34.353 246 13.5 243 18.1
2004-07-15 08:22:35 51°12.961 2°34.332 246.3 13.5 243 18.1
2004-07-15 08:22:40 51°12.953 2°34.305 246.2 13.6 243 18.1
2004-07-15 08:22:45 51°12.944 2°34.278 246.7 13.6 243 18.1
2004-07-15 08:22:50 51°12.936 2°34.251 246.7 13.5 243 17.9
2004-07-15 08:22:55 51°12.927 2°34.225 246.1 13.6 243 17.8
2004-07-15 08:23:00 51°12.918 2°34.198 246.3 13.6 243 17.9
2004-07-15 08:23:05 51°12.91 2°34.172 246.5 13.5 243 17.9
2004-07-15 08:23:11 51°12.9 2°34.14 246.4 13.4 243 17.9
2004-07-15 08:23:15 51°12.893 2°34.119 246.6 13.5 244 17.8
2004-07-15 08:23:20 51°12.884 2°34.092 246.8 13.5 242 17.6
2004-07-15 08:23:25 51°12.876 2°34.066 246.1 13.5 242 17.8
2004-07-15 08:23:29 51°12.869 2°34.044 246.1 13.5 243 17.6
2004-07-15 08:23:32 51°12.864 2°34.029 246 13.5 242 17.7
2004-07-15 08:23:40 51°12.85 2°33.986 245.6 13.5 243 17.7
2004-07-15 08:23:45 51°12.841 2°33.96 246.6 13.4 243 17.6
2004-07-15 08:23:51 51°12.831 2°33.928 246.6 13.5 243 17.6
2004-07-15 08:23:55 51°12.824 2°33.907 246.4 13.5 242 17.4
2004-07-15 08:23:59 51°12.817 2°33.885 246 13.5 242 17.2
2004-07-15 08:24:05 51°12.807 2°33.854 246 13.5 242 17.5
2004-07-15 08:24:09 51°12.8 2°33.833 245.9 13.5 242 17.3
2004-07-15 08:24:15 51°12.789 2°33.801 246.4 13.4 242 17.1
2004-07-15 08:24:20 51°12.781 2°33.774 245.8 13.5 243 17
2004-07-15 08:24:25 51°12.772 2°33.748 246.3 13.4 243 17
2004-07-15 08:24:30 51°12.764 2°33.721 246.1 13.4 242 16.9
2004-07-15 08:24:35 51°12.755 2°33.695 246.5 13.5 241 16.8
2004-07-15 08:24:39 51°12.748 2°33.674 246.3 13.4 245 16.7